Dati Storici

Data ora Umidita' aria (%) Temperatura aria (°C) Rad globale (W/m²) Gonioanemometro (°) Tacoanemometro (m/s) Pioggia (mm)
10-10-2012 03:20 78.5 % 15.144 3.988 30.138 1.662 0
10-10-2012 03:10 79.2 % 15.063 4.001 48.373 1.275 0
10-10-2012 03:00 79.3 % 15.058 4.104 17.858 1.05 0
10-10-2012 02:50 78.6 % 15.099 3.723 356.996 1.217 0
10-10-2012 02:40 77.7 % 15.193 3.774 40.072 1.514 0
10-10-2012 02:30 77.3 % 15.389 3.749 13.259 1.591 0
10-10-2012 02:20 77.1 % 15.392 3.236 21.2 0.787 0
10-10-2012 02:10 76.9 % 15.368 2.993 11.676 1.452 0
10-10-2012 02:00 76.6 % 15.439 3.211 13.824 1.261 0
10-10-2012 01:50 76.6 % 15.519 3.441 174.08 -0.005 0
10-10-2012 01:40 76.3 % 15.482 3.454 53.033 0.692 0
10-10-2012 01:30 76 % 15.556 3.492 54.25 0.968 0
10-10-2012 01:20 75.9 % 15.573 3.634 19.913 0.853 0
10-10-2012 01:10 76 % 15.639 3.595 11.713 0.707 0
10-10-2012 01:00 75.8 % 15.839 3.684 20.625 1.06 0
10-10-2012 00:50 75.2 % 15.902 3.749 273.237 0.752 0
10-10-2012 00:40 75.2 % 15.944 3.954 24.704 1.139 0
10-10-2012 00:30 75.7 % 15.915 3.928 329.275 1.083 0
10-10-2012 00:20 76.3 % 15.723 3.877 345.415 0.451 0
10-10-2012 00:10 76.2 % 15.633 3.851 2.545 0.294 0

I dati sono presentati in modo automatico a scopo informativo. In seguito a verifica i dati possono subire modifiche o essere invalidati e non riportati negli archivi definitivi.